HALF-HOURLY OBSERVATIONS INDEX

026

Lower Southeast

CAPE JAFFA (THE LIMESTONE)

Site: 026095
Alt: 17.0m
22km N of ROBE


  Time     Wind        Temp  DP   Baro     Rain since   Rain past  Vis(m), Cloud(base in m), Weather
  local        km/h                         9am  last   hr   10m    
Mon 10:30   SE 15/ 24  19.3  9.8  1020.1    0.0   0.0   0.0   0.0   ----- 
Mon 11:00   SE 17/ 26  20.0  9.6  1020.1    0.0   0.0   0.0   0.0   ----- 
Mon 11:30  SSE 17/ 33  20.8  9.4  1019.9    0.0   0.0   0.0   0.0   ----- 
Mon 12:00  SSW 28/ 35  20.2 10.3  1019.6    0.0   0.0   0.0   0.0   ----- 
Mon 12:30  SSW 35/ 39  18.8 10.1  1019.1    0.0   0.0   0.0   0.0   ----- 
Mon 13:00    S 37/ 45  18.1 10.7  1018.9    0.0   0.0   0.0   0.0   ----- 
Mon 13:30    S 35/ 43  19.7 10.7  1019.0    0.0   0.0   0.0   0.0   ----- 
Mon 14:00    S 37/ 43  19.6  9.8  1018.5    0.0   0.0   0.0   0.0   ----- 
Mon 14:30    S 39/ 45  18.4 10.5  1017.9    0.0   0.0   0.0   0.0   ----- 
Mon 15:00    S 41/ 46  20.4 11.3  1018.1    0.0   0.0   0.0   0.0   ----- 
Mon 15:30    S 39/ 46  19.0 10.6  1017.5    0.0   0.0   0.0   0.0   ----- 
Mon 16:00    S 37/ 43  19.1 10.9  1017.5    0.0   0.0   0.0   0.0   ----- 

COONAWARRA

Site: 026091
Alt: 57.0m
38km SSE of NARACOORTE


  Time     Wind        Temp  DP   Baro     Rain since   Rain past  Vis(m), Cloud(base in m), Weather
  local        km/h                         9am  last   hr   10m    
Mon 10:30   SE 19/ 28  18.6  9.4  1020.2    0.0   0.0   0.0   0.0   ----- 
Mon 11:00   SE 19/ 26  18.9  9.1  1020.0    0.0   0.0   0.0   0.0   ----- 
Mon 11:30   SE 15/ 24  19.9  9.2  1019.8    0.0   0.0   0.0   0.0   ----- 
Mon 12:00   SE 13/ 19  20.1  9.1  1019.8    0.0   0.0   0.0   0.0   ----- 
Mon 12:30  SSE 15/ 24  20.7  8.7  1019.3    0.0   0.0   0.0   0.0   ----- 
Mon 13:00   SE 11/ 20  22.4  9.6  1018.9    0.0   0.0   0.0   0.0   ----- 
Mon 13:30   SE 13/ 20  23.2  8.9  1018.8    0.0   0.0   0.0   0.0   ----- 
Mon 14:00  SSE 22/ 33  23.0  8.7  1018.5    0.0   0.0   0.0   0.0   ----- 
Mon 14:30   SE 20/ 35  23.3  8.2  1018.2    0.0   0.0   0.0   0.0   ----- 
Mon 15:00  ESE 19/ 28  25.1  9.4  1017.7    0.0   0.0   0.0   0.0   ----- 
Mon 15:30   SE 17/ 26  24.4  9.2  1017.5    0.0   0.0   0.0   0.0   ----- 
Mon 16:00  SSE 15/ 28  24.8  9.1  1017.2    0.0   0.0   0.0   0.0   ----- 

MOUNT GAMBIER AERO

Site: 026021
Alt: 63.0m
9km N of MOUNT GAMBIER


  Time     Wind        Temp  DP   Baro     Rain since   Rain past  Vis(m), Cloud(base in m), Weather
  local        km/h                         9am  last   hr   10m    
Mon 10:30   SE 19/ 30  19.3  8.0  1020.8    0.0   0.0   0.0   0.0   10000 
Mon 11:00  SSE 19/ 33  20.0  8.0  1020.7    0.0   0.0   0.0   0.0   10000 
Mon 11:30   SE 20/ 26  21.6  8.1  1020.5    0.0   0.0   0.0   0.0   10000 
Mon 12:00  SSE 13/ 19  21.7  8.6  1020.4    0.0   0.0   0.0   0.0   10000 
Mon 12:30  SSE 19/ 28  21.6  8.5  1020.0    0.0   0.0   0.0   0.0   10000 
Mon 13:00    S 20/ 32  21.1  9.7  1019.8    0.0   0.0   0.0   0.0   10000 
Mon 13:30  SSE 24/ 33  23.1  8.8  1019.8    0.0   0.0   0.0   0.0   10000 
Mon 14:00  SSE 24/ 43  23.5  9.1  1019.3    0.0   0.0   0.0   0.0   10000 
Mon 14:30    S 24/ 33  21.6  9.2  1019.4    0.0   0.0   0.0   0.0   10000 
Mon 15:00    S 28/ 39  22.5  9.3  1019.1    0.0   0.0   0.0   0.0   10000 
Mon 15:30  SSE 28/ 37  20.3  9.5  1018.6    0.0   0.0   0.0   0.0   10000 
Mon 16:00  SSE 32/ 39  21.5  9.1  1018.4    0.0   0.0   0.0   0.0   10000 

NARACOORTE AERODROME

Site: 026099
Alt: 49.7m
3km SSW of NARACOORTE


  Time     Wind        Temp  DP   Baro     Rain since   Rain past  Vis(m), Cloud(base in m), Weather
  local        km/h                         9am  last   hr   10m    
Mon 10:30  SSE 19/ 28  19.3 10.6  1019.8    0.0   0.0   0.0   0.0   ----- 
Mon 11:00   SE 17/ 24  20.0  9.6  1019.7    0.0   0.0   0.0   0.0   ----- 
Mon 11:30    N 15/ 24  20.9  9.8  1019.5    0.0   0.0   0.0   0.0   ----- 
Mon 12:00    N 17/ 24  21.5  8.7  1019.3    0.0   0.0   0.0   0.0   ----- 
Mon 12:30    N 15/ 24  22.3  7.7  1019.0    0.0   0.0   0.0   0.0   ----- 
Mon 13:00  SSE 19/ 24  23.6  8.5  1018.7    0.0   0.0   0.0   0.0   ----- 
Mon 13:30  SSE 15/ 24  23.8  7.0  1018.4    0.0   0.0   0.0   0.0   ----- 
Mon 14:00  SSE 13/ 22  24.7  7.8  1018.2    0.0   0.0   0.0   0.0   ----- 
Mon 14:30   SE 15/ 24  25.4  7.5  1017.6    0.0   0.0   0.0   0.0   ----- 
Mon 15:00   SE 17/ 22  25.1  6.8  1017.0    0.0   0.0   0.0   0.0   ----- 
Mon 15:30   SE 17/ 24  26.3  7.8  1016.9    0.0   0.0   0.0   0.0   ----- 
Mon 16:00  ESE 15/ 20  26.3  8.8  1016.4    0.0   0.0   0.0   0.0   ----- 

PADTHAWAY SOUTH

Site: 026100
Alt: 37.0m
38km NNW of NARACOORTE


  Time     Wind        Temp  DP   Baro     Rain since   Rain past  Vis(m), Cloud(base in m), Weather
  local        km/h                         9am  last   hr   10m    
Mon 10:30  SSE 15/ 24  19.0  9.5  ------    0.0   0.0   0.0   0.0   ----- 
Mon 11:00   SE 17/ 24  19.4  8.7  ------    0.0   0.0   0.0   0.0   ----- 
Mon 11:30   SE 13/ 22  20.6  7.6  ------    0.0   0.0   0.0   0.0   ----- 
Mon 12:00  SSE 13/ 22  21.9  7.3  ------    0.0   0.0   0.0   0.0   ----- 
Mon 12:30  ESE 13/ 19  22.9  7.1  ------    0.0   0.0   0.0   0.0   ----- 
Mon 13:00  SSE 19/ 24  23.5  6.7  ------    0.0   0.0   0.0   0.0   ----- 
Mon 13:30  SSE 13/ 24  23.5  5.4  ------    0.0   0.0   0.0   0.0   ----- 
Mon 14:00    S 17/ 28  24.4  5.2  ------    0.0   0.0   0.0   0.0   ----- 
Mon 14:30  SSE 13/ 22  24.6  4.9  ------    0.0   0.0   0.0   0.0   ----- 
Mon 15:00   SE 13/ 22  25.4  5.1  ------    0.0   0.0   0.0   0.0   ----- 
Mon 15:30  SSE 17/ 24  26.5  4.3  ------    0.0   0.0   0.0   0.0   ----- 
Mon 16:00   SE 17/ 22  25.9  3.8  ------    0.0   0.0   0.0   0.0   ----- 

ROBE AIRFIELD

Site: 026105
Alt: 3.0m
5km ESE of ROBE


  Time     Wind        Temp  DP   Baro     Rain since   Rain past  Vis(m), Cloud(base in m), Weather
  local        km/h                         9am  last   hr   10m    
Mon 10:30   SE 17/ 28  19.2  9.9  1020.4    0.0   0.0   0.0   0.0   ----- 
Mon 11:00   SE 17/ 26  18.4  9.2  1020.4    0.0   0.0   0.0   0.0   ----- 
Mon 11:30  SSE 19/ 30  19.7 10.4  1020.1    0.0   0.0   0.0   0.0   ----- 
Mon 12:00  SSE 15/ 24  19.7 10.1  1020.1    0.0   0.0   0.0   0.0   ----- 
Mon 12:30    S 26/ 35  20.2 10.6  1019.7    0.0   0.0   0.0   0.0   ----- 
Mon 13:00  SSE 26/ 43  19.9  9.8  1019.2    0.0   0.0   0.0   0.0   ----- 
Mon 13:30    S 28/ 37  21.0 10.8  1019.2    0.0   0.0   0.0   0.0   ----- 
Mon 14:00    S 28/ 41  20.3 10.4  1019.0    0.0   0.0   0.0   0.0   ----- 
Mon 14:30    S 26/ 39  20.9 10.7  1018.2    0.0   0.0   0.0   0.0   ----- 
Mon 15:00    S 30/ 41  19.9 10.6  1018.5    0.0   0.0   0.0   0.0   ----- 
Mon 15:30    S 30/ 43  18.7 10.0  1018.0    0.0   0.0   0.0   0.0   ----- 
Mon 16:00    S 28/ 39  19.3 10.3  1017.8    0.0   0.0   0.0   0.0   -----